createdAt,value
2018-06-12T00:00:12.876Z,0
2018-06-12T00:01:21.521Z,0
2018-06-12T00:02:30.696Z,0
2018-06-12T00:03:39.333Z,0
2018-06-12T00:04:48.254Z,0
2018-06-12T00:05:57.156Z,0
2018-06-12T00:07:05.806Z,0
2018-06-12T00:08:14.447Z,0
2018-06-12T00:09:23.094Z,0
2018-06-12T00:10:32.006Z,0
2018-06-12T00:11:40.654Z,0
2018-06-12T00:12:49.302Z,0
2018-06-12T00:13:57.938Z,0
2018-06-12T00:15:06.588Z,0
2018-06-12T00:16:15.227Z,0
2018-06-12T00:17:23.882Z,0
2018-06-12T00:18:32.522Z,0
2018-06-12T00:19:41.437Z,0
2018-06-12T00:20:50.079Z,0
2018-06-12T00:21:58.735Z,0
2018-06-12T00:23:07.633Z,0
2018-06-12T00:24:16.279Z,0
2018-06-12T00:25:25.184Z,0
2018-06-12T00:26:33.838Z,0
2018-06-12T00:27:42.491Z,0
2018-06-12T00:28:51.401Z,0
2018-06-12T00:30:00.042Z,0
2018-06-12T00:31:08.677Z,0
2018-06-12T00:32:17.598Z,0
2018-06-12T00:33:26.241Z,0
2018-06-12T00:34:35.159Z,0
2018-06-12T00:35:44.064Z,0
2018-06-12T00:36:52.722Z,0
2018-06-12T00:38:01.364Z,0
2018-06-12T00:39:10.013Z,0
2018-06-12T00:40:18.653Z,0
2018-06-12T00:41:27.309Z,0
2018-06-12T00:42:36.220Z,0
2018-06-12T00:43:44.869Z,0
2018-06-12T00:44:53.512Z,0
2018-06-12T00:46:02.163Z,0
2018-06-12T00:47:10.813Z,0
2018-06-12T00:48:19.459Z,0
2018-06-12T00:49:28.107Z,0
2018-06-12T00:50:37.007Z,0
2018-06-12T00:51:45.657Z,0
2018-06-12T00:52:54.294Z,0
2018-06-12T00:54:02.948Z,0
2018-06-12T00:55:11.590Z,0
2018-06-12T00:56:20.234Z,0
2018-06-12T00:57:28.884Z,0
2018-06-12T00:58:37.531Z,0
2018-06-12T00:59:46.171Z,0
2018-06-12T01:00:54.818Z,0
2018-06-12T01:02:03.463Z,0
2018-06-12T01:03:12.114Z,0
2018-06-12T01:04:20.756Z,0
2018-06-12T01:05:29.401Z,0
2018-06-12T01:06:38.043Z,0
2018-06-12T01:07:46.687Z,0
2018-06-12T01:08:55.336Z,0
2018-06-12T01:10:03.982Z,0
2018-06-12T01:11:12.894Z,0
2018-06-12T01:12:21.804Z,0
2018-06-12T01:13:30.451Z,0
2018-06-12T01:14:39.096Z,0
2018-06-12T01:15:47.738Z,0
2018-06-12T01:16:56.380Z,0
2018-06-12T01:18:05.029Z,0
2018-06-12T01:19:13.671Z,0
2018-06-12T01:20:22.591Z,0
2018-06-12T01:21:31.234Z,0
2018-06-12T01:22:39.881Z,0
2018-06-12T01:23:48.527Z,0
2018-06-12T01:24:57.177Z,0
2018-06-12T01:26:05.824Z,0
2018-06-12T01:27:14.728Z,0
2018-06-12T01:28:23.373Z,0
2018-06-12T01:29:32.018Z,0
2018-06-12T01:30:40.669Z,0
2018-06-12T01:31:49.313Z,0
2018-06-12T01:32:57.960Z,0
2018-06-12T01:34:06.604Z,0
2018-06-12T01:35:15.254Z,0
2018-06-12T01:36:23.895Z,0
2018-06-12T01:37:32.541Z,0
2018-06-12T01:38:41.183Z,0
2018-06-12T01:39:49.835Z,0
2018-06-12T01:40:58.475Z,0
2018-06-12T01:42:07.127Z,0
2018-06-12T01:43:15.764Z,0
2018-06-12T01:44:24.406Z,0
2018-06-12T01:45:33.326Z,0
2018-06-12T01:46:41.971Z,0
2018-06-12T01:47:50.620Z,0
2018-06-12T01:48:59.257Z,0
2018-06-12T01:50:07.910Z,0
2018-06-12T01:51:16.555Z,0
2018-06-12T01:52:25.201Z,0
2018-06-12T01:53:34.104Z,0
2018-06-12T01:54:43.023Z,0
2018-06-12T01:55:51.665Z,0
2018-06-12T01:57:00.312Z,0
2018-06-12T01:58:08.954Z,0
2018-06-12T01:59:17.863Z,0
2018-06-12T02:00:26.512Z,0
2018-06-12T02:01:35.157Z,0
2018-06-12T02:02:43.809Z,0
2018-06-12T02:03:52.442Z,0
2018-06-12T02:05:01.092Z,0
2018-06-12T02:06:09.732Z,0
2018-06-12T02:07:18.385Z,0
2018-06-12T02:08:27.020Z,0
2018-06-12T02:13:24.690Z,0
2018-06-12T02:14:33.609Z,0
2018-06-12T02:15:42.246Z,0
2018-06-12T02:16:51.153Z,0
2018-06-12T02:17:59.794Z,0
2018-06-12T02:19:08.450Z,0
2018-06-12T02:20:17.093Z,0
2018-06-12T02:21:25.733Z,0
2018-06-12T02:22:34.377Z,0
2018-06-12T02:23:43.020Z,0
2018-06-12T02:24:51.673Z,0
2018-06-12T02:26:00.312Z,0
2018-06-12T02:27:08.966Z,0
2018-06-12T02:28:17.604Z,0
2018-06-12T02:29:26.264Z,4
2018-06-12T02:30:35.167Z,4
2018-06-12T02:31:43.819Z,0
2018-06-12T02:32:52.460Z,0
2018-06-12T02:34:01.117Z,0
2018-06-12T02:35:09.763Z,4
2018-06-12T02:36:18.683Z,4
2018-06-12T02:37:27.318Z,0
2018-06-12T02:38:35.967Z,4
2018-06-12T02:39:44.617Z,4
2018-06-12T02:40:53.274Z,4
2018-06-12T02:42:02.189Z,4
2018-06-12T02:43:10.825Z,4
2018-06-12T02:44:19.478Z,8
2018-06-12T02:45:28.121Z,4
2018-06-12T02:46:36.778Z,4
2018-06-12T02:47:45.418Z,4
2018-06-12T02:48:54.332Z,8
2018-06-12T02:50:02.973Z,8
2018-06-12T02:51:11.895Z,12
2018-06-12T02:52:20.537Z,16
2018-06-12T02:53:29.186Z,16
2018-06-12T02:54:38.112Z,16
2018-06-12T02:55:47.020Z,20
2018-06-12T02:56:55.672Z,24
2018-06-12T02:58:04.327Z,28
2018-06-12T02:59:12.976Z,28
2018-06-12T03:00:21.893Z,36
2018-06-12T03:01:30.530Z,40
2018-06-12T03:02:39.436Z,48
2018-06-12T03:03:48.076Z,52
2018-06-12T03:04:56.731Z,64
2018-06-12T03:06:05.369Z,72
2018-06-12T03:07:14.019Z,76
2018-06-12T03:08:22.671Z,88
2018-06-12T03:09:31.588Z,92
2018-06-12T03:10:40.488Z,104
2018-06-12T03:11:49.142Z,112
2018-06-12T03:12:57.792Z,124
2018-06-12T03:14:06.713Z,132
2018-06-12T03:15:15.356Z,144
2018-06-12T03:16:24.270Z,160
2018-06-12T03:17:32.913Z,172
2018-06-12T03:18:41.827Z,188
2018-06-12T03:19:50.475Z,208
2018-06-12T03:20:59.117Z,236
2018-06-12T03:22:08.311Z,252
2018-06-12T03:23:16.992Z,276
2018-06-12T03:24:25.602Z,292
2018-06-12T03:25:34.242Z,316
2018-06-12T03:26:42.892Z,372
2018-06-12T03:27:51.528Z,408
2018-06-12T03:29:00.449Z,436
2018-06-12T03:30:09.095Z,460
2018-06-12T03:31:17.775Z,488
2018-06-12T03:32:26.384Z,508
2018-06-12T03:33:35.036Z,532
2018-06-12T03:34:43.950Z,552
2018-06-12T03:35:52.596Z,568
2018-06-12T03:37:01.250Z,572
2018-06-12T03:38:10.154Z,580
2018-06-12T03:39:18.804Z,584
2018-06-12T03:40:27.449Z,564
2018-06-12T03:41:36.409Z,540
2018-06-12T03:42:45.311Z,528
2018-06-12T03:43:53.958Z,552
2018-06-12T03:45:02.599Z,512
2018-06-12T03:46:11.253Z,436
2018-06-12T03:47:19.887Z,348
2018-06-12T03:48:28.536Z,304
2018-06-12T03:49:37.178Z,284
2018-06-12T03:50:46.102Z,280
2018-06-12T03:51:54.744Z,284
2018-06-12T03:53:03.388Z,296
2018-06-12T03:54:12.298Z,332
2018-06-12T03:55:20.941Z,384
2018-06-12T03:56:29.590Z,440
2018-06-12T03:57:38.308Z,520
2018-06-12T03:58:46.880Z,592
2018-06-12T03:59:55.524Z,696
2018-06-12T04:01:04.177Z,868
2018-06-12T04:02:12.822Z,928
2018-06-12T04:03:21.466Z,996
2018-06-12T04:04:30.382Z,1080
2018-06-12T04:05:39.029Z,1180
2018-06-12T04:06:47.960Z,1236
2018-06-12T04:07:56.611Z,1308
2018-06-12T04:09:05.251Z,1192
2018-06-12T04:10:14.167Z,1204
2018-06-12T04:11:22.824Z,1280
2018-06-12T04:12:31.723Z,1284
2018-06-12T04:13:40.371Z,1228
2018-06-12T04:14:49.152Z,1232
2018-06-12T04:15:58.111Z,1232
2018-06-12T04:17:06.760Z,1268
2018-06-12T04:18:15.724Z,1288
2018-06-12T04:19:24.511Z,1312
2018-06-12T04:20:33.307Z,1316
2018-06-12T04:21:41.899Z,1344
2018-06-12T04:22:50.555Z,1448
2018-06-12T04:23:59.195Z,1544
2018-06-12T04:25:07.847Z,1628
2018-06-12T04:26:16.491Z,1760
2018-06-12T04:27:25.141Z,1996
2018-06-12T04:28:34.045Z,2280
2018-06-12T04:29:42.695Z,2232
2018-06-12T04:30:51.602Z,2044
2018-06-12T04:32:00.245Z,1944
2018-06-12T04:33:08.893Z,1944
2018-06-12T04:34:17.539Z,1992
2018-06-12T04:35:26.185Z,2068
2018-06-12T04:36:35.094Z,2124
2018-06-12T04:37:43.741Z,2180
2018-06-12T04:38:52.387Z,2216
2018-06-12T04:40:01.026Z,2248
2018-06-12T04:41:09.671Z,2264
2018-06-12T04:42:18.321Z,2264
2018-06-12T04:43:27.016Z,2212
2018-06-12T04:44:35.611Z,2116
2018-06-12T04:45:44.256Z,2044
2018-06-12T04:46:52.898Z,1992
2018-06-12T04:48:01.551Z,1948
2018-06-12T04:49:10.473Z,1892
2018-06-12T04:50:19.387Z,1876
2018-06-12T04:51:28.027Z,1900
2018-06-12T04:52:36.672Z,1932
2018-06-12T04:53:45.321Z,1976
2018-06-12T04:54:53.964Z,2004
2018-06-12T04:56:02.880Z,2004
2018-06-12T04:57:11.785Z,1992
2018-06-12T04:58:20.439Z,1972
2018-06-12T04:59:29.075Z,1972
2018-06-12T05:00:37.728Z,1988
2018-06-12T05:01:46.370Z,2024
2018-06-12T05:02:55.019Z,2060
2018-06-12T05:04:03.921Z,2084
2018-06-12T05:05:12.572Z,2112
2018-06-12T05:06:21.219Z,2136
2018-06-12T05:07:29.868Z,2144
2018-06-12T05:08:38.521Z,2160
2018-06-12T05:09:47.428Z,2200
2018-06-12T05:10:56.079Z,2232
2018-06-12T05:12:04.719Z,2272
2018-06-12T05:13:13.639Z,2328
2018-06-12T05:14:22.279Z,2400
2018-06-12T05:15:30.930Z,2476
2018-06-12T05:16:39.571Z,2552
2018-06-12T05:17:48.226Z,2604
2018-06-12T05:18:56.866Z,2632
2018-06-12T05:20:05.783Z,2628
2018-06-12T05:21:14.690Z,2588
2018-06-12T05:22:23.343Z,2540
2018-06-12T05:23:31.987Z,2528
2018-06-12T05:24:40.637Z,2540
2018-06-12T05:25:49.281Z,2580
2018-06-12T05:26:57.925Z,2660
2018-06-12T05:28:06.581Z,2728
2018-06-12T05:29:15.489Z,2808
2018-06-12T05:30:24.141Z,2904
2018-06-12T05:31:32.780Z,2996
2018-06-12T05:32:41.433Z,3088
2018-06-12T05:33:50.074Z,3164
2018-06-12T05:34:58.730Z,3244
2018-06-12T05:36:07.370Z,3308
2018-06-12T05:37:16.027Z,3388
2018-06-12T05:38:24.668Z,3444
2018-06-12T05:39:33.319Z,3480
2018-06-12T05:40:41.955Z,3528
2018-06-12T05:41:50.873Z,3608
2018-06-12T05:43:00.066Z,3696
2018-06-12T05:44:08.713Z,3780
2018-06-12T05:45:17.361Z,3884
2018-06-12T05:46:25.999Z,3932
2018-06-12T05:47:34.651Z,3920
2018-06-12T05:48:43.290Z,3908
2018-06-12T05:49:51.945Z,3884
2018-06-12T05:51:00.855Z,3840
2018-06-12T05:52:09.763Z,3824
2018-06-12T05:53:18.408Z,3828
2018-06-12T05:54:27.061Z,3840
2018-06-12T05:55:35.705Z,3880
2018-06-12T05:56:44.353Z,3908
2018-06-12T05:57:52.996Z,3948
2018-06-12T05:59:01.648Z,4008
2018-06-12T06:00:10.291Z,4088
2018-06-12T06:01:19.023Z,4144
2018-06-12T06:02:27.582Z,4164
2018-06-12T06:03:36.226Z,4208
2018-06-12T06:04:44.878Z,4292
2018-06-12T06:05:53.525Z,4416
2018-06-12T06:07:02.171Z,4540
2018-06-12T06:08:10.813Z,4620
2018-06-12T06:09:19.470Z,4604
2018-06-12T06:10:28.117Z,4536
2018-06-12T06:11:36.766Z,4472
2018-06-12T06:12:45.409Z,4336
2018-06-12T06:13:54.061Z,4168
2018-06-12T06:15:02.706Z,4080
2018-06-12T06:16:11.353Z,4004
2018-06-12T06:17:19.994Z,3964
2018-06-12T06:18:28.644Z,3968
2018-06-12T06:19:37.289Z,4004
2018-06-12T06:20:45.938Z,3928
2018-06-12T06:21:54.586Z,3740
2018-06-12T06:23:03.226Z,3576
2018-06-12T06:24:11.870Z,3632
2018-06-12T06:25:20.779Z,3800
2018-06-12T06:26:29.706Z,3876
2018-06-12T06:27:38.615Z,3772
2018-06-12T06:28:47.262Z,3584
2018-06-12T06:29:56.175Z,3572
2018-06-12T06:31:04.825Z,3564
2018-06-12T06:32:13.468Z,3364
2018-06-12T06:33:22.117Z,3236
2018-06-12T06:34:30.760Z,3236
2018-06-12T06:35:39.675Z,3368
2018-06-12T06:36:48.333Z,3472
2018-06-12T06:37:57.502Z,3468
2018-06-12T06:39:06.151Z,3348
2018-06-12T06:40:14.796Z,3340
2018-06-12T06:41:23.708Z,3480
2018-06-12T06:42:32.356Z,3700
2018-06-12T06:43:41.002Z,3748
2018-06-12T06:44:49.644Z,3708
2018-06-12T06:45:58.302Z,3876
2018-06-12T06:47:07.215Z,3776
2018-06-12T06:48:15.858Z,3644
2018-06-12T06:49:24.503Z,3808
2018-06-12T06:50:33.144Z,3964
2018-06-12T06:51:42.057Z,3840
2018-06-12T06:52:50.704Z,3836
2018-06-12T06:53:59.626Z,3936
2018-06-12T06:55:08.541Z,3784
2018-06-12T06:56:17.188Z,3704
2018-06-12T06:57:25.836Z,3728
2018-06-12T06:58:34.475Z,3952
2018-06-12T06:59:43.127Z,4204
2018-06-12T07:00:52.041Z,4316
2018-06-12T07:02:00.695Z,4076
2018-06-12T07:03:09.348Z,4136
2018-06-12T07:04:17.995Z,4196
2018-06-12T07:05:26.644Z,3964
2018-06-12T07:06:35.290Z,3944
2018-06-12T07:07:43.934Z,4152
2018-06-12T07:08:52.850Z,4252
2018-06-12T07:10:01.499Z,3904
2018-06-12T07:11:10.144Z,3256
2018-06-12T07:12:18.793Z,3116
2018-06-12T07:13:27.706Z,3356
2018-06-12T07:14:36.616Z,3608
2018-06-12T07:15:45.266Z,4032
2018-06-12T07:16:53.911Z,4456
2018-06-12T07:18:02.555Z,4548
2018-06-12T07:19:11.274Z,4780
2018-06-12T07:20:20.183Z,5336
2018-06-12T07:21:28.863Z,5768
2018-06-12T07:22:37.522Z,6044
2018-06-12T07:23:46.434Z,6472
2018-06-12T07:24:55.340Z,7072
2018-06-12T07:26:04.003Z,6896
2018-06-12T07:27:12.647Z,6524
2018-06-12T07:28:21.299Z,6792
2018-06-12T07:29:30.205Z,7284
2018-06-12T07:30:39.504Z,7704
2018-06-12T07:31:48.740Z,8036
2018-06-12T07:32:57.394Z,7848
2018-06-12T07:34:06.300Z,7240
2018-06-12T07:35:14.950Z,6940
2018-06-12T07:36:23.603Z,6888
2018-06-12T07:37:32.593Z,6692
2018-06-12T07:38:41.552Z,6556
2018-06-12T07:39:50.194Z,6532
2018-06-12T07:40:58.847Z,6500
2018-06-12T07:42:07.495Z,6244
2018-06-12T07:43:16.294Z,5868
2018-06-12T07:44:25.067Z,5768
2018-06-12T07:45:33.761Z,6032
2018-06-12T07:46:42.741Z,6288
2018-06-12T07:47:51.442Z,6440
2018-06-12T07:49:00.087Z,6524
2018-06-12T07:50:08.740Z,6532
2018-06-12T07:51:17.393Z,6556
2018-06-12T07:52:26.044Z,6728
2018-06-12T07:53:34.695Z,6876
2018-06-12T07:54:43.335Z,6816
2018-06-12T07:55:51.989Z,6656
2018-06-12T07:57:01.158Z,6372
2018-06-12T07:58:10.870Z,5976
2018-06-12T07:59:19.508Z,5736
2018-06-12T08:00:28.502Z,5456
2018-06-12T08:01:37.106Z,5412
2018-06-12T08:02:45.767Z,5408
2018-06-12T08:03:54.670Z,5140
2018-06-12T08:05:03.323Z,4964
2018-06-12T08:06:11.968Z,4888
2018-06-12T08:07:20.628Z,4844
2018-06-12T08:08:29.274Z,4884
2018-06-12T08:09:37.929Z,4892
2018-06-12T08:10:46.579Z,5004
2018-06-12T08:11:55.225Z,5196
2018-06-12T08:13:03.939Z,5236
2018-06-12T08:14:12.922Z,5232
2018-06-12T08:15:21.575Z,5100
2018-06-12T08:16:30.215Z,5100
2018-06-12T08:17:38.873Z,5156
2018-06-12T08:18:47.517Z,5376
2018-06-12T08:19:56.173Z,5540
2018-06-12T08:21:05.071Z,5528
2018-06-12T08:22:13.736Z,5472
2018-06-12T08:23:22.649Z,5308
2018-06-12T08:24:31.300Z,5044
2018-06-12T08:25:39.934Z,4968
2018-06-12T08:26:48.589Z,4820
2018-06-12T08:27:57.240Z,5424
2018-06-12T08:29:05.891Z,6524
2018-06-12T08:30:14.580Z,6800
2018-06-12T08:31:23.624Z,5912
2018-06-12T08:32:32.279Z,4760
2018-06-12T08:33:40.923Z,4020
2018-06-12T08:34:49.588Z,4796
2018-06-12T08:35:58.492Z,4964
2018-06-12T08:37:07.144Z,4668
2018-06-12T08:38:15.789Z,5424
2018-06-12T08:39:24.444Z,7328
2018-06-12T08:40:33.088Z,8412
2018-06-12T08:41:41.741Z,8060
2018-06-12T08:42:50.653Z,6384
2018-06-12T08:43:59.310Z,5252
2018-06-12T08:45:08.226Z,4816
2018-06-12T08:46:16.875Z,5152
2018-06-12T08:47:25.520Z,4792
2018-06-12T08:48:34.187Z,4080
2018-06-12T08:49:43.091Z,4004
2018-06-12T08:50:52.003Z,4568
2018-06-12T08:52:00.654Z,5624
2018-06-12T08:53:09.296Z,7160
2018-06-12T08:54:17.949Z,8516
2018-06-12T08:55:26.602Z,8924
2018-06-12T08:56:35.512Z,9264
2018-06-12T08:57:44.156Z,9688
2018-06-12T08:58:52.811Z,10012
2018-06-12T09:00:01.458Z,10132
2018-06-12T09:01:10.114Z,10332
2018-06-12T09:02:19.027Z,10872
2018-06-12T09:03:27.680Z,10696
2018-06-12T09:04:36.330Z,10080
2018-06-12T09:05:44.979Z,9868
2018-06-12T09:06:53.632Z,9488
2018-06-12T09:08:02.276Z,8128
2018-06-12T09:09:10.925Z,7640
2018-06-12T09:10:19.577Z,7232
2018-06-12T09:11:28.240Z,6964
2018-06-12T09:12:36.880Z,6724
2018-06-12T09:13:45.805Z,6592
2018-06-12T09:14:54.996Z,6552
2018-06-12T09:16:03.708Z,6528
2018-06-12T09:17:12.663Z,6636
2018-06-12T09:18:21.738Z,7024
2018-06-12T09:19:30.673Z,6700
2018-06-12T09:20:39.351Z,6540
2018-06-12T09:21:48.042Z,6628
2018-06-12T09:22:56.701Z,6704
2018-06-12T09:24:05.348Z,7044
2018-06-12T09:25:14.417Z,7552
2018-06-12T09:26:23.008Z,7876
2018-06-12T09:27:31.654Z,7868
2018-06-12T09:28:40.305Z,7340
2018-06-12T09:29:48.957Z,6980
2018-06-12T09:30:57.686Z,6344
2018-06-12T09:32:06.610Z,6280
2018-06-12T09:33:15.266Z,6132
2018-06-12T09:34:23.912Z,6100
2018-06-12T09:35:32.566Z,6500
2018-06-12T09:36:41.213Z,6684
2018-06-12T09:37:49.864Z,7320
2018-06-12T09:38:58.509Z,8372
2018-06-12T09:40:07.160Z,9556
2018-06-12T09:41:15.814Z,9636
2018-06-12T09:42:24.467Z,9436
2018-06-12T09:43:33.381Z,9208
2018-06-12T09:44:42.029Z,8292
2018-06-12T09:45:50.682Z,8788
2018-06-12T09:46:59.326Z,9624
2018-06-12T09:48:07.984Z,9324
2018-06-12T09:49:16.625Z,8604
2018-06-12T09:50:25.280Z,8260
2018-06-12T09:51:33.925Z,7792
2018-06-12T09:52:42.594Z,7836
2018-06-12T09:53:51.230Z,7884
2018-06-12T09:54:59.883Z,7844
2018-06-12T09:56:09.078Z,7096
2018-06-12T09:57:17.738Z,5900
2018-06-12T09:58:26.390Z,5728
2018-06-12T09:59:35.299Z,5608
2018-06-12T10:00:43.947Z,5412
2018-06-12T10:01:52.860Z,5304
2018-06-12T10:03:01.522Z,5768
2018-06-12T10:04:10.173Z,6292
2018-06-12T10:05:19.093Z,6532
2018-06-12T10:06:27.735Z,6264
2018-06-12T10:07:36.394Z,5620
2018-06-12T10:08:45.042Z,5032
2018-06-12T10:09:53.694Z,4752
2018-06-12T10:11:02.338Z,5008
2018-06-12T10:12:10.999Z,5832
2018-06-12T10:13:19.648Z,6344
2018-06-12T10:14:28.298Z,6644
2018-06-12T10:15:36.940Z,6248
2018-06-12T10:16:45.590Z,5536
2018-06-12T10:17:54.246Z,5080
2018-06-12T10:19:02.901Z,4904
2018-06-12T10:20:11.825Z,4864
2018-06-12T10:21:20.465Z,4904
2018-06-12T10:22:29.119Z,4936
2018-06-12T10:23:37.765Z,5172
2018-06-12T10:24:46.425Z,5576
2018-06-12T10:25:55.066Z,6128
2018-06-12T10:27:03.721Z,6600
2018-06-12T10:28:12.368Z,7016
2018-06-12T10:29:21.034Z,6576
2018-06-12T10:30:29.946Z,5768
2018-06-12T10:31:38.602Z,5112
2018-06-12T10:32:47.249Z,4984
2018-06-12T10:33:55.906Z,5232
2018-06-12T10:35:04.808Z,5524
2018-06-12T10:36:13.454Z,5960
2018-06-12T10:37:22.145Z,6216
2018-06-12T10:38:30.747Z,6392
2018-06-12T10:39:39.410Z,6336
2018-06-12T10:40:48.320Z,6240
2018-06-12T10:41:56.980Z,6132
2018-06-12T10:43:05.876Z,6120
2018-06-12T10:44:14.797Z,6288
2018-06-12T10:45:23.452Z,6540
2018-06-12T10:46:32.099Z,6660
2018-06-12T10:47:40.757Z,6472
2018-06-12T10:48:49.401Z,6112
2018-06-12T10:49:58.076Z,5744
2018-06-12T10:51:06.701Z,5604
2018-06-12T10:52:15.360Z,5788
2018-06-12T10:53:24.009Z,6128
2018-06-12T10:54:32.916Z,6360
2018-06-12T10:55:41.655Z,6036
2018-06-12T10:56:50.690Z,5896
2018-06-12T10:57:59.381Z,5924
2018-06-12T10:59:08.030Z,6088
2018-06-12T11:00:16.689Z,6524
2018-06-12T11:01:25.595Z,7064
2018-06-12T11:02:34.253Z,7120
2018-06-12T11:03:43.163Z,7164
2018-06-12T11:04:51.818Z,7220
2018-06-12T11:06:00.458Z,7444
2018-06-12T11:07:09.121Z,7676
2018-06-12T11:08:17.766Z,7708
2018-06-12T11:09:26.425Z,7616
2018-06-12T11:10:35.067Z,7636
2018-06-12T11:11:43.721Z,7892
2018-06-12T11:12:52.378Z,7540
2018-06-12T11:14:01.030Z,7012
2018-06-12T11:15:09.945Z,6380
2018-06-12T11:16:18.589Z,6488
2018-06-12T11:17:27.248Z,6584
2018-06-12T11:18:35.897Z,6464
2018-06-12T11:19:44.558Z,6420
2018-06-12T11:20:53.217Z,6548
2018-06-12T11:22:02.428Z,6604
2018-06-12T11:23:11.128Z,6372
2018-06-12T11:24:19.787Z,6144
2018-06-12T11:25:28.694Z,6184
2018-06-12T11:26:37.347Z,6252
2018-06-12T11:27:45.994Z,6168
2018-06-12T11:28:54.655Z,6064
2018-06-12T11:30:03.308Z,5948
2018-06-12T11:31:11.960Z,6180
2018-06-12T11:32:20.874Z,6560
2018-06-12T11:33:29.522Z,6468
2018-06-12T11:34:38.185Z,6304
2018-06-12T11:35:46.833Z,5728
2018-06-12T11:36:55.486Z,5256
2018-06-12T11:38:04.135Z,4868
2018-06-12T11:39:12.788Z,4632
2018-06-12T11:40:21.436Z,4516
2018-06-12T11:41:30.095Z,4472
2018-06-12T11:42:38.740Z,4520
2018-06-12T11:43:47.394Z,4588
2018-06-12T11:44:56.041Z,4680
2018-06-12T11:46:04.704Z,4560
2018-06-12T11:47:13.610Z,4416
2018-06-12T11:48:22.269Z,4420
2018-06-12T11:49:30.922Z,4444
2018-06-12T11:50:39.581Z,4308
2018-06-12T11:51:48.495Z,4052
2018-06-12T11:52:57.403Z,3844
2018-06-12T11:54:06.055Z,3860
2018-06-12T11:55:14.704Z,4232
2018-06-12T11:56:23.361Z,4796
2018-06-12T11:57:32.010Z,5316
2018-06-12T11:58:40.663Z,5700
2018-06-12T11:59:49.313Z,6016
2018-06-12T12:00:57.969Z,6236
2018-06-12T12:02:07.157Z,6416
2018-06-12T12:03:15.843Z,6468
2018-06-12T12:04:24.491Z,6380
2018-06-12T12:05:33.147Z,6196
2018-06-12T12:06:41.795Z,5972
2018-06-12T12:07:50.444Z,5756
2018-06-12T12:08:59.095Z,5540
2018-06-12T12:10:08.022Z,5364
2018-06-12T12:11:16.682Z,5368
2018-06-12T12:12:25.344Z,5396
2018-06-12T12:13:33.992Z,5316
2018-06-12T12:14:42.638Z,5176
2018-06-12T12:15:51.294Z,5212
2018-06-12T12:17:00.015Z,5308
2018-06-12T12:18:08.599Z,5408
2018-06-12T12:19:17.248Z,5652
2018-06-12T12:20:25.902Z,5988
2018-06-12T12:21:34.550Z,6376
2018-06-12T12:22:43.202Z,6728
2018-06-12T12:23:51.846Z,6600
2018-06-12T12:25:00.499Z,6496
2018-06-12T12:26:09.154Z,6384
2018-06-12T12:27:17.812Z,6264
2018-06-12T12:28:26.730Z,6164
2018-06-12T12:29:35.376Z,6148
2018-06-12T12:30:44.561Z,6292
2018-06-12T12:31:53.209Z,6492
2018-06-12T12:33:01.866Z,6644
2018-06-12T12:34:12.879Z,6872
2018-06-12T12:35:21.822Z,7064
2018-06-12T12:36:30.703Z,7072
2018-06-12T12:37:39.633Z,6972
2018-06-12T12:38:48.543Z,6780
2018-06-12T12:39:57.304Z,6564
2018-06-12T12:41:05.953Z,6352
2018-06-12T12:42:14.869Z,6264
2018-06-12T12:43:23.518Z,6308
2018-06-12T12:44:33.515Z,6464
2018-06-12T12:45:42.404Z,6544
2018-06-12T12:46:51.562Z,6568
2018-06-12T12:48:00.771Z,6548
2018-06-12T12:49:09.460Z,6440
2018-06-12T12:50:18.372Z,6276
2018-06-12T12:51:27.016Z,6120
2018-06-12T12:52:35.672Z,5968
2018-06-12T12:53:44.323Z,5804
2018-06-12T12:54:52.973Z,5616
2018-06-12T12:56:01.620Z,5376
2018-06-12T12:57:10.279Z,5120
2018-06-12T12:58:19.464Z,4872
2018-06-12T12:59:28.117Z,4612
2018-06-12T13:00:36.763Z,4352
2018-06-12T13:01:45.416Z,4212
2018-06-12T13:02:54.066Z,4156
2018-06-12T13:04:02.761Z,4096
2018-06-12T13:05:11.376Z,4084
2018-06-12T13:06:20.024Z,4068
2018-06-12T13:07:28.673Z,4016
2018-06-12T13:08:37.323Z,3956
2018-06-12T13:09:45.979Z,3876
2018-06-12T13:10:54.885Z,3808
2018-06-12T13:12:03.807Z,3772
2018-06-12T13:13:12.456Z,3800
2018-06-12T13:14:21.111Z,3888
2018-06-12T13:15:30.027Z,4028
2018-06-12T13:16:38.950Z,4188
2018-06-12T13:17:47.864Z,4312
2018-06-12T13:18:56.524Z,4376
2018-06-12T13:20:05.175Z,4412
2018-06-12T13:21:13.824Z,4412
2018-06-12T13:22:22.472Z,4384
2018-06-12T13:23:31.121Z,4384
2018-06-12T13:24:39.774Z,4484
2018-06-12T13:25:48.425Z,4588
2018-06-12T13:26:57.071Z,4660
2018-06-12T13:28:05.715Z,4600
2018-06-12T13:29:14.370Z,4528
2018-06-12T13:30:23.287Z,4504
2018-06-12T13:31:31.938Z,4480
2018-06-12T13:32:40.591Z,4480
2018-06-12T13:33:49.333Z,4400
2018-06-12T13:34:58.292Z,4292
2018-06-12T13:36:06.943Z,4144
2018-06-12T13:37:15.859Z,3924
2018-06-12T13:38:24.509Z,3712
2018-06-12T13:39:33.422Z,3648
2018-06-12T13:40:42.080Z,3652
2018-06-12T13:41:50.733Z,3584
2018-06-12T13:42:59.375Z,3512
2018-06-12T13:44:08.025Z,3488
2018-06-12T13:45:16.939Z,3500
2018-06-12T13:46:25.611Z,3472
2018-06-12T13:47:34.250Z,3408
2018-06-12T13:48:42.898Z,3352
2018-06-12T13:49:51.542Z,3268
2018-06-12T13:51:00.202Z,3196
2018-06-12T13:52:08.845Z,3156
2018-06-12T13:53:17.500Z,3008
2018-06-12T13:54:26.145Z,2840
2018-06-12T13:55:34.815Z,2760
2018-06-12T13:56:43.462Z,2860
2018-06-12T13:57:52.117Z,3056
2018-06-12T13:59:00.768Z,3088
2018-06-12T14:00:09.414Z,2964
2018-06-12T14:01:18.078Z,2844
2018-06-12T14:02:26.991Z,2996
2018-06-12T14:03:35.908Z,3144
2018-06-12T14:04:44.551Z,3192
2018-06-12T14:05:53.479Z,3204
2018-06-12T14:07:02.132Z,3272
2018-06-12T14:08:10.785Z,3416
2018-06-12T14:09:19.425Z,3588
2018-06-12T14:10:28.359Z,3780
2018-06-12T14:11:37.006Z,4172
2018-06-12T14:12:45.659Z,4524
2018-06-12T14:13:54.302Z,4592
2018-06-12T14:15:03.216Z,3948
2018-06-12T14:16:11.871Z,3180
2018-06-12T14:17:20.525Z,2780
2018-06-12T14:18:29.175Z,2680
2018-06-12T14:19:37.816Z,2924
2018-06-12T14:20:46.473Z,3476
2018-06-12T14:21:55.175Z,4140
2018-06-12T14:23:04.331Z,4972
2018-06-12T14:24:12.973Z,5264
2018-06-12T14:25:21.627Z,5276
2018-06-12T14:26:30.276Z,4876
2018-06-12T14:27:39.463Z,4284
2018-06-12T14:28:48.112Z,4120
2018-06-12T14:29:56.757Z,4192
2018-06-12T14:31:05.406Z,4076
2018-06-12T14:32:14.066Z,4160
2018-06-12T14:33:22.987Z,3820
2018-06-12T14:34:31.894Z,3496
2018-06-12T14:35:40.542Z,3548
2018-06-12T14:36:49.191Z,3756
2018-06-12T14:37:58.122Z,3852
2018-06-12T14:39:07.032Z,3792
2018-06-12T14:40:15.677Z,3600
2018-06-12T14:41:24.337Z,3428
2018-06-12T14:42:32.980Z,3564
2018-06-12T14:43:41.634Z,3632
2018-06-12T14:44:50.282Z,3536
2018-06-12T14:45:58.942Z,3348
2018-06-12T14:47:07.583Z,3164
2018-06-12T14:48:16.499Z,2940
2018-06-12T14:49:25.147Z,2756
2018-06-12T14:50:33.806Z,2900
2018-06-12T14:51:43.007Z,3296
2018-06-12T14:52:51.651Z,3632
2018-06-12T14:54:00.299Z,3840
2018-06-12T14:55:09.209Z,3820
2018-06-12T14:56:17.865Z,4012
2018-06-12T14:57:26.511Z,4092
2018-06-12T14:58:35.166Z,3812
2018-06-12T14:59:43.807Z,3464
2018-06-12T15:00:52.468Z,2948
2018-06-12T15:02:01.116Z,2696
2018-06-12T15:03:09.770Z,2636
2018-06-12T15:04:18.413Z,2808
2018-06-12T15:05:27.074Z,3036
2018-06-12T15:06:35.720Z,3252
2018-06-12T15:07:44.635Z,3536
2018-06-12T15:08:53.276Z,3972
2018-06-12T15:10:02.193Z,4448
2018-06-12T15:11:10.848Z,4800
2018-06-12T15:12:19.500Z,4900
2018-06-12T15:13:28.155Z,4540
2018-06-12T15:14:37.058Z,3976
2018-06-12T15:15:45.716Z,3488
2018-06-12T15:16:54.621Z,3252
2018-06-12T15:18:03.284Z,3288
2018-06-12T15:19:11.925Z,3384
2018-06-12T15:20:20.581Z,3284
2018-06-12T15:21:29.228Z,3200
2018-06-12T15:22:37.888Z,3360
2018-06-12T15:23:46.531Z,3532
2018-06-12T15:24:55.181Z,3548
2018-06-12T15:26:03.831Z,3620
2018-06-12T15:27:12.488Z,3996
2018-06-12T15:28:21.136Z,4604
2018-06-12T15:29:29.781Z,5120
2018-06-12T15:30:38.431Z,5264
2018-06-12T15:31:47.077Z,4928
2018-06-12T15:32:55.733Z,4392
2018-06-12T15:34:04.379Z,4388
2018-06-12T15:35:13.033Z,4768
2018-06-12T15:36:21.938Z,5196
2018-06-12T15:37:30.593Z,5428